sensor_id;sensor_type;location;lat;lon;timestamp;P1;durP1;ratioP1;P2;durP2;ratioP2
57643;SDS011;43474;46.510;6.686;2023-05-07T00:01:26;813.50;;;755.17;;
57643;SDS011;43474;46.510;6.686;2023-05-07T00:03:51;814.42;;;755.15;;
57643;SDS011;43474;46.510;6.686;2023-05-07T00:06:17;820.17;;;760.90;;
57643;SDS011;43474;46.510;6.686;2023-05-07T00:08:42;825.05;;;765.72;;
57643;SDS011;43474;46.510;6.686;2023-05-07T00:11:08;803.03;;;745.80;;
57643;SDS011;43474;46.510;6.686;2023-05-07T00:13:34;806.50;;;749.15;;
57643;SDS011;43474;46.510;6.686;2023-05-07T00:16:01;791.17;;;734.88;;
57643;SDS011;43474;46.510;6.686;2023-05-07T00:18:27;802.80;;;747.55;;
57643;SDS011;43474;46.510;6.686;2023-05-07T00:20:53;798.47;;;743.13;;
57643;SDS011;43474;46.510;6.686;2023-05-07T00:23:19;805.80;;;749.40;;
57643;SDS011;43474;46.510;6.686;2023-05-07T00:25:44;810.92;;;753.97;;
57643;SDS011;43474;46.510;6.686;2023-05-07T00:28:10;814.67;;;757.20;;
57643;SDS011;43474;46.510;6.686;2023-05-07T00:30:35;808.33;;;751.00;;
57643;SDS011;43474;46.510;6.686;2023-05-07T00:33:01;806.50;;;749.78;;
57643;SDS011;43474;46.510;6.686;2023-05-07T00:35:28;800.58;;;745.45;;
57643;SDS011;43474;46.510;6.686;2023-05-07T00:37:54;811.58;;;754.50;;
57643;SDS011;43474;46.510;6.686;2023-05-07T00:40:20;818.10;;;759.05;;
57643;SDS011;43474;46.510;6.686;2023-05-07T00:42:45;819.17;;;760.13;;
57643;SDS011;43474;46.510;6.686;2023-05-07T00:45:15;842.33;;;782.97;;
57643;SDS011;43474;46.510;6.686;2023-05-07T00:47:42;834.22;;;774.35;;
57643;SDS011;43474;46.510;6.686;2023-05-07T00:50:08;842.28;;;781.95;;
57643;SDS011;43474;46.510;6.686;2023-05-07T00:52:36;821.13;;;760.40;;
57643;SDS011;43474;46.510;6.686;2023-05-07T00:55:04;843.33;;;782.22;;
57643;SDS011;43474;46.510;6.686;2023-05-07T00:57:40;833.40;;;773.15;;
57643;SDS011;43474;46.510;6.686;2023-05-07T01:00:07;839.92;;;779.58;;
57643;SDS011;43474;46.510;6.686;2023-05-07T01:02:35;842.15;;;781.58;;
57643;SDS011;43474;46.510;6.686;2023-05-07T01:05:01;857.33;;;794.13;;
57643;SDS011;43474;46.510;6.686;2023-05-07T01:07:29;852.38;;;790.00;;
57643;SDS011;43474;46.510;6.686;2023-05-07T01:09:56;867.97;;;805.13;;
57643;SDS011;43474;46.510;6.686;2023-05-07T01:12:22;842.38;;;781.08;;
57643;SDS011;43474;46.510;6.686;2023-05-07T01:14:49;832.42;;;772.25;;
57643;SDS011;43474;46.510;6.686;2023-05-07T01:17:15;853.20;;;790.88;;
57643;SDS011;43474;46.510;6.686;2023-05-07T01:19:41;860.42;;;796.42;;
57643;SDS011;43474;46.510;6.686;2023-05-07T01:22:08;862.25;;;799.13;;
57643;SDS011;43474;46.510;6.686;2023-05-07T01:24:36;866.33;;;802.78;;
57643;SDS011;43474;46.510;6.686;2023-05-07T01:27:03;870.33;;;805.00;;
57643;SDS011;43474;46.510;6.686;2023-05-07T01:29:29;864.00;;;800.15;;
57643;SDS011;43474;46.510;6.686;2023-05-07T01:31:58;859.28;;;795.38;;
57643;SDS011;43474;46.510;6.686;2023-05-07T01:34:26;852.38;;;789.28;;
57643;SDS011;43474;46.510;6.686;2023-05-07T01:36:55;842.75;;;780.92;;
57643;SDS011;43474;46.510;6.686;2023-05-07T01:39:24;859.25;;;796.35;;
57643;SDS011;43474;46.510;6.686;2023-05-07T01:41:52;861.65;;;799.42;;
57643;SDS011;43474;46.510;6.686;2023-05-07T01:44:20;843.83;;;782.42;;
57643;SDS011;43474;46.510;6.686;2023-05-07T01:46:46;832.50;;;773.13;;
57643;SDS011;43474;46.510;6.686;2023-05-07T01:49:13;806.05;;;749.13;;
57643;SDS011;43474;46.510;6.686;2023-05-07T01:51:40;823.15;;;764.25;;
57643;SDS011;43474;46.510;6.686;2023-05-07T01:54:06;833.67;;;773.92;;
57643;SDS011;43474;46.510;6.686;2023-05-07T01:56:33;841.78;;;781.83;;
57643;SDS011;43474;46.510;6.686;2023-05-07T01:58:59;827.05;;;767.65;;
57643;SDS011;43474;46.510;6.686;2023-05-07T02:01:24;825.75;;;767.15;;
57643;SDS011;43474;46.510;6.686;2023-05-07T02:03:50;833.22;;;774.35;;
57643;SDS011;43474;46.510;6.686;2023-05-07T02:06:16;822.47;;;765.05;;
57643;SDS011;43474;46.510;6.686;2023-05-07T02:08:41;835.55;;;776.33;;
57643;SDS011;43474;46.510;6.686;2023-05-07T02:11:07;809.58;;;752.45;;
57643;SDS011;43474;46.510;6.686;2023-05-07T02:13:33;792.88;;;739.45;;
57643;SDS011;43474;46.510;6.686;2023-05-07T02:15:59;772.92;;;721.00;;
57643;SDS011;43474;46.510;6.686;2023-05-07T02:18:25;789.63;;;735.67;;
57643;SDS011;43474;46.510;6.686;2023-05-07T02:20:51;807.25;;;750.58;;
57643;SDS011;43474;46.510;6.686;2023-05-07T02:23:17;827.55;;;768.63;;
57643;SDS011;43474;46.510;6.686;2023-05-07T02:25:42;830.58;;;771.38;;
57643;SDS011;43474;46.510;6.686;2023-05-07T02:28:08;838.92;;;779.10;;
57643;SDS011;43474;46.510;6.686;2023-05-07T02:30:33;858.65;;;795.13;;
57643;SDS011;43474;46.510;6.686;2023-05-07T02:32:59;852.10;;;790.90;;
57643;SDS011;43474;46.510;6.686;2023-05-07T02:35:24;865.97;;;802.28;;
57643;SDS011;43474;46.510;6.686;2023-05-07T02:37:51;855.58;;;791.53;;
57643;SDS011;43474;46.510;6.686;2023-05-07T02:40:16;873.35;;;809.75;;
57643;SDS011;43474;46.510;6.686;2023-05-07T02:42:42;852.60;;;791.08;;
57643;SDS011;43474;46.510;6.686;2023-05-07T02:45:07;844.38;;;782.47;;
57643;SDS011;43474;46.510;6.686;2023-05-07T02:47:34;863.90;;;801.05;;
57643;SDS011;43474;46.510;6.686;2023-05-07T02:49:59;851.88;;;791.42;;
57643;SDS011;43474;46.510;6.686;2023-05-07T02:52:25;839.40;;;781.25;;
57643;SDS011;43474;46.510;6.686;2023-05-07T02:54:50;809.65;;;753.25;;
57643;SDS011;43474;46.510;6.686;2023-05-07T02:57:16;836.55;;;778.22;;
57643;SDS011;43474;46.510;6.686;2023-05-07T02:59:42;831.80;;;773.55;;
57643;SDS011;43474;46.510;6.686;2023-05-07T03:02:08;831.35;;;772.42;;
57643;SDS011;43474;46.510;6.686;2023-05-07T03:04:33;826.20;;;766.80;;
57643;SDS011;43474;46.510;6.686;2023-05-07T03:06:59;804.10;;;748.25;;
57643;SDS011;43474;46.510;6.686;2023-05-07T03:09:24;815.72;;;758.47;;
57643;SDS011;43474;46.510;6.686;2023-05-07T03:11:50;807.20;;;750.65;;
57643;SDS011;43474;46.510;6.686;2023-05-07T03:14:17;804.95;;;748.60;;
57643;SDS011;43474;46.510;6.686;2023-05-07T03:16:42;830.60;;;772.92;;
57643;SDS011;43474;46.510;6.686;2023-05-07T03:19:08;610.03;;;574.97;;
57643;SDS011;43474;46.510;6.686;2023-05-07T03:21:34;625.58;;;589.08;;
57643;SDS011;43474;46.510;6.686;2023-05-07T03:23:59;645.03;;;606.88;;
57643;SDS011;43474;46.510;6.686;2023-05-07T03:26:25;644.63;;;606.50;;
57643;SDS011;43474;46.510;6.686;2023-05-07T03:28:51;675.20;;;634.50;;
57643;SDS011;43474;46.510;6.686;2023-05-07T03:31:17;652.22;;;613.03;;
57643;SDS011;43474;46.510;6.686;2023-05-07T03:33:56;653.83;;;615.38;;
57643;SDS011;43474;46.510;6.686;2023-05-07T03:36:22;618.88;;;583.08;;
57643;SDS011;43474;46.510;6.686;2023-05-07T03:38:48;606.83;;;571.25;;
57643;SDS011;43474;46.510;6.686;2023-05-07T03:41:15;612.00;;;575.65;;
57643;SDS011;43474;46.510;6.686;2023-05-07T03:43:40;634.50;;;595.25;;
57643;SDS011;43474;46.510;6.686;2023-05-07T03:46:06;652.97;;;612.97;;
57643;SDS011;43474;46.510;6.686;2023-05-07T03:48:31;656.97;;;615.30;;
57643;SDS011;43474;46.510;6.686;2023-05-07T03:50:57;664.50;;;623.58;;
57643;SDS011;43474;46.510;6.686;2023-05-07T03:53:23;657.05;;;616.03;;
57643;SDS011;43474;46.510;6.686;2023-05-07T03:55:49;642.63;;;603.03;;
57643;SDS011;43474;46.510;6.686;2023-05-07T03:58:15;640.65;;;601.90;;
57643;SDS011;43474;46.510;6.686;2023-05-07T04:00:41;627.15;;;588.80;;
57643;SDS011;43474;46.510;6.686;2023-05-07T04:03:07;533.33;;;502.75;;
57643;SDS011;43474;46.510;6.686;2023-05-07T04:05:33;552.03;;;519.63;;
57643;SDS011;43474;46.510;6.686;2023-05-07T04:07:58;490.98;;;463.02;;
57643;SDS011;43474;46.510;6.686;2023-05-07T04:10:24;460.50;;;434.02;;
57643;SDS011;43474;46.510;6.686;2023-05-07T04:12:50;387.90;;;366.90;;
57643;SDS011;43474;46.510;6.686;2023-05-07T04:15:16;391.80;;;370.40;;
57643;SDS011;43474;46.510;6.686;2023-05-07T04:17:41;319.95;;;303.08;;
57643;SDS011;43474;46.510;6.686;2023-05-07T04:20:15;224.00;;;212.48;;
57643;SDS011;43474;46.510;6.686;2023-05-07T04:22:41;185.50;;;175.82;;
57643;SDS011;43474;46.510;6.686;2023-05-07T04:25:07;178.45;;;169.25;;
57643;SDS011;43474;46.510;6.686;2023-05-07T04:27:34;157.95;;;149.90;;
57643;SDS011;43474;46.510;6.686;2023-05-07T04:30:01;172.77;;;164.05;;
57643;SDS011;43474;46.510;6.686;2023-05-07T04:32:29;181.80;;;172.65;;
57643;SDS011;43474;46.510;6.686;2023-05-07T04:34:56;145.70;;;138.63;;
57643;SDS011;43474;46.510;6.686;2023-05-07T04:37:21;120.10;;;113.95;;
57643;SDS011;43474;46.510;6.686;2023-05-07T04:39:47;133.05;;;126.40;;
57643;SDS011;43474;46.510;6.686;2023-05-07T04:42:16;118.15;;;112.47;;
57643;SDS011;43474;46.510;6.686;2023-05-07T04:44:44;110.43;;;104.70;;
57643;SDS011;43474;46.510;6.686;2023-05-07T04:47:13;107.45;;;102.10;;
57643;SDS011;43474;46.510;6.686;2023-05-07T04:49:38;102.90;;;97.70;;
57643;SDS011;43474;46.510;6.686;2023-05-07T04:52:04;104.72;;;99.40;;
57643;SDS011;43474;46.510;6.686;2023-05-07T04:54:30;186.43;;;177.55;;
57643;SDS011;43474;46.510;6.686;2023-05-07T04:56:55;223.18;;;212.48;;
57643;SDS011;43474;46.510;6.686;2023-05-07T04:59:21;287.77;;;274.10;;
57643;SDS011;43474;46.510;6.686;2023-05-07T05:01:47;303.75;;;288.95;;
57643;SDS011;43474;46.510;6.686;2023-05-07T05:04:12;355.00;;;338.17;;
57643;SDS011;43474;46.510;6.686;2023-05-07T05:06:38;520.40;;;492.63;;
57643;SDS011;43474;46.510;6.686;2023-05-07T05:09:04;742.17;;;697.90;;
57643;SDS011;43474;46.510;6.686;2023-05-07T05:11:30;721.00;;;678.33;;
57643;SDS011;43474;46.510;6.686;2023-05-07T05:13:56;708.35;;;667.28;;
57643;SDS011;43474;46.510;6.686;2023-05-07T05:16:21;745.75;;;699.28;;
57643;SDS011;43474;46.510;6.686;2023-05-07T05:18:47;738.45;;;693.00;;
57643;SDS011;43474;46.510;6.686;2023-05-07T05:21:13;771.13;;;722.85;;
57643;SDS011;43474;46.510;6.686;2023-05-07T05:23:38;779.08;;;729.63;;
57643;SDS011;43474;46.510;6.686;2023-05-07T05:26:04;625.75;;;592.63;;
57643;SDS011;43474;46.510;6.686;2023-05-07T05:28:30;502.42;;;477.10;;
57643;SDS011;43474;46.510;6.686;2023-05-07T05:30:55;517.95;;;492.17;;
57643;SDS011;43474;46.510;6.686;2023-05-07T05:33:21;275.02;;;262.88;;
57643;SDS011;43474;46.510;6.686;2023-05-07T05:35:46;195.30;;;186.20;;
57643;SDS011;43474;46.510;6.686;2023-05-07T05:38:12;104.90;;;99.93;;
57643;SDS011;43474;46.510;6.686;2023-05-07T05:40:38;79.88;;;75.95;;
57643;SDS011;43474;46.510;6.686;2023-05-07T05:43:04;75.13;;;71.18;;
57643;SDS011;43474;46.510;6.686;2023-05-07T05:45:29;79.13;;;74.60;;
57643;SDS011;43474;46.510;6.686;2023-05-07T05:47:56;96.28;;;91.05;;
57643;SDS011;43474;46.510;6.686;2023-05-07T05:50:21;98.10;;;92.50;;
57643;SDS011;43474;46.510;6.686;2023-05-07T05:52:47;90.93;;;86.07;;
57643;SDS011;43474;46.510;6.686;2023-05-07T05:55:13;123.93;;;117.47;;
57643;SDS011;43474;46.510;6.686;2023-05-07T05:57:39;147.57;;;139.82;;
57643;SDS011;43474;46.510;6.686;2023-05-07T06:00:05;182.52;;;172.80;;
57643;SDS011;43474;46.510;6.686;2023-05-07T06:02:32;185.20;;;175.65;;
57643;SDS011;43474;46.510;6.686;2023-05-07T06:04:57;204.85;;;194.32;;
57643;SDS011;43474;46.510;6.686;2023-05-07T06:07:23;227.48;;;216.07;;
57643;SDS011;43474;46.510;6.686;2023-05-07T06:09:48;256.40;;;243.77;;
57643;SDS011;43474;46.510;6.686;2023-05-07T06:12:14;232.20;;;220.30;;
57643;SDS011;43474;46.510;6.686;2023-05-07T06:14:39;229.38;;;217.85;;
57643;SDS011;43474;46.510;6.686;2023-05-07T06:17:06;183.70;;;174.07;;
57643;SDS011;43474;46.510;6.686;2023-05-07T06:19:31;165.75;;;156.70;;
57643;SDS011;43474;46.510;6.686;2023-05-07T06:21:57;131.00;;;123.90;;
57643;SDS011;43474;46.510;6.686;2023-05-07T06:24:23;153.75;;;145.68;;
57643;SDS011;43474;46.510;6.686;2023-05-07T06:26:49;147.55;;;139.73;;
57643;SDS011;43474;46.510;6.686;2023-05-07T06:29:15;129.15;;;122.80;;
57643;SDS011;43474;46.510;6.686;2023-05-07T06:31:41;186.80;;;178.10;;
57643;SDS011;43474;46.510;6.686;2023-05-07T06:34:06;302.08;;;287.52;;
57643;SDS011;43474;46.510;6.686;2023-05-07T06:36:32;197.23;;;187.90;;
57643;SDS011;43474;46.510;6.686;2023-05-07T06:38:58;363.35;;;346.25;;
57643;SDS011;43474;46.510;6.686;2023-05-07T06:41:23;749.47;;;695.95;;
57643;SDS011;43474;46.510;6.686;2023-05-07T06:43:49;761.85;;;706.55;;
57643;SDS011;43474;46.510;6.686;2023-05-07T06:46:15;547.05;;;510.48;;
57643;SDS011;43474;46.510;6.686;2023-05-07T06:48:40;677.13;;;627.85;;
57643;SDS011;43474;46.510;6.686;2023-05-07T06:51:06;619.67;;;577.63;;
57643;SDS011;43474;46.510;6.686;2023-05-07T06:53:32;659.00;;;610.45;;
57643;SDS011;43474;46.510;6.686;2023-05-07T06:55:57;640.00;;;595.85;;
57643;SDS011;43474;46.510;6.686;2023-05-07T06:58:23;832.15;;;764.00;;
57643;SDS011;43474;46.510;6.686;2023-05-07T07:00:49;805.53;;;740.08;;
57643;SDS011;43474;46.510;6.686;2023-05-07T07:03:14;826.97;;;759.03;;
57643;SDS011;43474;46.510;6.686;2023-05-07T07:05:41;878.47;;;803.88;;
57643;SDS011;43474;46.510;6.686;2023-05-07T07:08:07;873.88;;;797.28;;
57643;SDS011;43474;46.510;6.686;2023-05-07T07:10:33;893.47;;;815.25;;
57643;SDS011;43474;46.510;6.686;2023-05-07T07:12:58;926.97;;;846.55;;
57643;SDS011;43474;46.510;6.686;2023-05-07T07:15:24;965.03;;;878.40;;
57643;SDS011;43474;46.510;6.686;2023-05-07T07:17:50;960.38;;;872.92;;
57643;SDS011;43474;46.510;6.686;2023-05-07T07:20:16;970.00;;;885.85;;
57643;SDS011;43474;46.510;6.686;2023-05-07T07:22:42;959.90;;;880.85;;
57643;SDS011;43474;46.510;6.686;2023-05-07T07:25:08;963.17;;;884.08;;
57643;SDS011;43474;46.510;6.686;2023-05-07T07:27:36;981.40;;;901.53;;
57643;SDS011;43474;46.510;6.686;2023-05-07T07:30:02;950.78;;;872.35;;
57643;SDS011;43474;46.510;6.686;2023-05-07T07:32:27;1013.25;;;930.42;;
57643;SDS011;43474;46.510;6.686;2023-05-07T07:34:53;965.22;;;887.35;;
57643;SDS011;43474;46.510;6.686;2023-05-07T07:37:18;1001.92;;;919.65;;
57643;SDS011;43474;46.510;6.686;2023-05-07T07:39:44;1000.47;;;921.00;;
57643;SDS011;43474;46.510;6.686;2023-05-07T07:42:10;1032.93;;;948.78;;
57643;SDS011;43474;46.510;6.686;2023-05-07T07:44:35;1027.63;;;944.50;;
57643;SDS011;43474;46.510;6.686;2023-05-07T07:47:01;1001.50;;;918.97;;
57643;SDS011;43474;46.510;6.686;2023-05-07T07:49:27;1084.53;;;987.67;;
57643;SDS011;43474;46.510;6.686;2023-05-07T07:51:52;1079.80;;;982.33;;
57643;SDS011;43474;46.510;6.686;2023-05-07T07:54:18;1093.75;;;994.63;;
57643;SDS011;43474;46.510;6.686;2023-05-07T07:56:43;1101.30;;;995.72;;
57643;SDS011;43474;46.510;6.686;2023-05-07T07:59:09;1116.70;;;999.90;;
57643;SDS011;43474;46.510;6.686;2023-05-07T08:01:34;1011.20;;;927.03;;
57643;SDS011;43474;46.510;6.686;2023-05-07T08:04:00;984.05;;;901.67;;
57643;SDS011;43474;46.510;6.686;2023-05-07T08:06:28;1047.95;;;955.72;;
57643;SDS011;43474;46.510;6.686;2023-05-07T08:08:54;1052.72;;;960.65;;
57643;SDS011;43474;46.510;6.686;2023-05-07T08:11:20;1062.95;;;966.65;;
57643;SDS011;43474;46.510;6.686;2023-05-07T08:13:46;1099.40;;;995.47;;
57643;SDS011;43474;46.510;6.686;2023-05-07T08:16:13;1060.10;;;961.60;;
57643;SDS011;43474;46.510;6.686;2023-05-07T08:18:39;1114.80;;;999.90;;
57643;SDS011;43474;46.510;6.686;2023-05-07T08:21:05;1125.57;;;999.90;;
57643;SDS011;43474;46.510;6.686;2023-05-07T08:23:30;1126.80;;;999.90;;
57643;SDS011;43474;46.510;6.686;2023-05-07T08:25:56;1140.47;;;999.90;;
57643;SDS011;43474;46.510;6.686;2023-05-07T08:28:22;1118.70;;;999.90;;
57643;SDS011;43474;46.510;6.686;2023-05-07T08:30:49;1144.80;;;999.90;;
57643;SDS011;43474;46.510;6.686;2023-05-07T08:33:15;1177.25;;;999.90;;
57643;SDS011;43474;46.510;6.686;2023-05-07T08:35:41;1163.53;;;999.90;;
57643;SDS011;43474;46.510;6.686;2023-05-07T08:38:07;1160.05;;;999.90;;
57643;SDS011;43474;46.510;6.686;2023-05-07T08:40:34;1134.60;;;999.90;;
57643;SDS011;43474;46.510;6.686;2023-05-07T08:43:03;1111.88;;;999.90;;
57643;SDS011;43474;46.510;6.686;2023-05-07T08:45:30;1092.18;;;989.30;;
57643;SDS011;43474;46.510;6.686;2023-05-07T08:47:59;1096.65;;;994.00;;
57643;SDS011;43474;46.510;6.686;2023-05-07T08:50:28;1099.53;;;994.22;;
57643;SDS011;43474;46.510;6.686;2023-05-07T08:52:54;1078.88;;;973.17;;
57643;SDS011;43474;46.510;6.686;2023-05-07T08:55:22;1138.82;;;999.90;;
57643;SDS011;43474;46.510;6.686;2023-05-07T08:57:48;1095.07;;;987.78;;
57643;SDS011;43474;46.510;6.686;2023-05-07T09:00:13;1114.25;;;997.33;;
57643;SDS011;43474;46.510;6.686;2023-05-07T09:02:40;1063.70;;;960.30;;
57643;SDS011;43474;46.510;6.686;2023-05-07T09:05:05;1054.63;;;954.47;;
57643;SDS011;43474;46.510;6.686;2023-05-07T09:07:32;1043.13;;;949.08;;
57643;SDS011;43474;46.510;6.686;2023-05-07T09:09:57;1042.10;;;948.25;;
57643;SDS011;43474;46.510;6.686;2023-05-07T09:12:24;1056.22;;;958.42;;
57643;SDS011;43474;46.510;6.686;2023-05-07T09:14:50;1059.63;;;960.40;;
57643;SDS011;43474;46.510;6.686;2023-05-07T09:17:16;1045.85;;;947.47;;
57643;SDS011;43474;46.510;6.686;2023-05-07T09:19:43;1023.35;;;932.95;;
57643;SDS011;43474;46.510;6.686;2023-05-07T09:22:12;1021.88;;;929.03;;
57643;SDS011;43474;46.510;6.686;2023-05-07T09:24:38;1076.85;;;971.25;;
57643;SDS011;43474;46.510;6.686;2023-05-07T09:27:04;993.42;;;908.13;;
57643;SDS011;43474;46.510;6.686;2023-05-07T09:29:30;978.72;;;893.83;;
57643;SDS011;43474;46.510;6.686;2023-05-07T09:32:01;921.33;;;845.28;;
57643;SDS011;43474;46.510;6.686;2023-05-07T09:34:28;991.88;;;901.40;;
57643;SDS011;43474;46.510;6.686;2023-05-07T09:36:54;1063.30;;;962.90;;
57643;SDS011;43474;46.510;6.686;2023-05-07T09:39:21;969.35;;;887.90;;
57643;SDS011;43474;46.510;6.686;2023-05-07T09:41:49;902.33;;;830.22;;
57643;SDS011;43474;46.510;6.686;2023-05-07T09:44:16;917.15;;;841.15;;
57643;SDS011;43474;46.510;6.686;2023-05-07T09:46:43;998.88;;;908.08;;
57643;SDS011;43474;46.510;6.686;2023-05-07T09:49:13;911.03;;;836.45;;
57643;SDS011;43474;46.510;6.686;2023-05-07T09:51:50;919.35;;;844.05;;
57643;SDS011;43474;46.510;6.686;2023-05-07T09:54:16;903.37;;;829.70;;
57643;SDS011;43474;46.510;6.686;2023-05-07T09:56:44;851.33;;;785.65;;
57643;SDS011;43474;46.510;6.686;2023-05-07T09:59:10;871.78;;;804.85;;
57643;SDS011;43474;46.510;6.686;2023-05-07T10:01:38;851.72;;;785.80;;
57643;SDS011;43474;46.510;6.686;2023-05-07T10:04:07;905.80;;;832.85;;
57643;SDS011;43474;46.510;6.686;2023-05-07T10:06:36;887.40;;;816.92;;
57643;SDS011;43474;46.510;6.686;2023-05-07T10:09:03;829.15;;;766.38;;
57643;SDS011;43474;46.510;6.686;2023-05-07T10:11:33;872.42;;;803.83;;
57643;SDS011;43474;46.510;6.686;2023-05-07T10:13:59;815.83;;;754.70;;
57643;SDS011;43474;46.510;6.686;2023-05-07T10:16:28;833.08;;;770.80;;
57643;SDS011;43474;46.510;6.686;2023-05-07T10:18:57;792.40;;;734.50;;
57643;SDS011;43474;46.510;6.686;2023-05-07T10:21:24;888.72;;;821.47;;
57643;SDS011;43474;46.510;6.686;2023-05-07T10:23:59;805.58;;;747.50;;
57643;SDS011;43474;46.510;6.686;2023-05-07T10:26:42;845.92;;;783.75;;
57643;SDS011;43474;46.510;6.686;2023-05-07T10:32:13;825.63;;;764.42;;
57643;SDS011;43474;46.510;6.686;2023-05-07T10:35:01;769.10;;;714.38;;
57643;SDS011;43474;46.510;6.686;2023-05-07T10:37:30;826.10;;;765.35;;
57643;SDS011;43474;46.510;6.686;2023-05-07T10:39:58;813.03;;;752.53;;
57643;SDS011;43474;46.510;6.686;2023-05-07T10:42:24;828.63;;;766.80;;
57643;SDS011;43474;46.510;6.686;2023-05-07T10:44:49;827.47;;;767.30;;
57643;SDS011;43474;46.510;6.686;2023-05-07T10:47:16;825.10;;;764.95;;
57643;SDS011;43474;46.510;6.686;2023-05-07T10:52:18;835.35;;;772.70;;
57643;SDS011;43474;46.510;6.686;2023-05-07T10:54:45;781.60;;;725.05;;
57643;SDS011;43474;46.510;6.686;2023-05-07T10:57:32;826.92;;;766.85;;
57643;SDS011;43474;46.510;6.686;2023-05-07T11:00:00;783.80;;;728.20;;
57643;SDS011;43474;46.510;6.686;2023-05-07T11:05:30;800.63;;;741.88;;
57643;SDS011;43474;46.510;6.686;2023-05-07T11:08:00;847.53;;;783.13;;
57643;SDS011;43474;46.510;6.686;2023-05-07T11:11:10;962.75;;;875.53;;
57643;SDS011;43474;46.510;6.686;2023-05-07T11:16:16;965.60;;;881.58;;
57643;SDS011;43474;46.510;6.686;2023-05-07T11:18:49;960.05;;;877.83;;
57643;SDS011;43474;46.510;6.686;2023-05-07T11:21:31;921.42;;;846.97;;
57643;SDS011;43474;46.510;6.686;2023-05-07T11:23:57;918.75;;;844.72;;
57643;SDS011;43474;46.510;6.686;2023-05-07T11:26:24;953.55;;;874.00;;
57643;SDS011;43474;46.510;6.686;2023-05-07T11:28:51;966.25;;;885.60;;
57643;SDS011;43474;46.510;6.686;2023-05-07T11:31:20;943.05;;;866.97;;
57643;SDS011;43474;46.510;6.686;2023-05-07T11:33:47;884.58;;;815.33;;
57643;SDS011;43474;46.510;6.686;2023-05-07T11:36:13;903.60;;;833.97;;
57643;SDS011;43474;46.510;6.686;2023-05-07T11:38:39;973.83;;;888.42;;
57643;SDS011;43474;46.510;6.686;2023-05-07T11:41:04;1096.68;;;979.42;;
57643;SDS011;43474;46.510;6.686;2023-05-07T11:43:31;1119.60;;;997.70;;
57643;SDS011;43474;46.510;6.686;2023-05-07T11:46:10;1121.85;;;999.90;;
57643;SDS011;43474;46.510;6.686;2023-05-07T11:48:37;1094.80;;;987.05;;
57643;SDS011;43474;46.510;6.686;2023-05-07T11:51:04;1082.97;;;981.05;;
57643;SDS011;43474;46.510;6.686;2023-05-07T11:53:35;1087.32;;;982.75;;
57643;SDS011;43474;46.510;6.686;2023-05-07T11:56:12;1049.10;;;953.35;;
57643;SDS011;43474;46.510;6.686;2023-05-07T11:58:39;1068.28;;;965.40;;
57643;SDS011;43474;46.510;6.686;2023-05-07T12:01:07;1150.90;;;999.90;;
57643;SDS011;43474;46.510;6.686;2023-05-07T12:03:37;1126.38;;;999.90;;
57643;SDS011;43474;46.510;6.686;2023-05-07T12:06:05;1093.47;;;983.00;;
57643;SDS011;43474;46.510;6.686;2023-05-07T12:08:31;1078.35;;;976.50;;
57643;SDS011;43474;46.510;6.686;2023-05-07T12:10:57;1089.05;;;984.50;;
57643;SDS011;43474;46.510;6.686;2023-05-07T12:13:24;1152.13;;;999.90;;
57643;SDS011;43474;46.510;6.686;2023-05-07T12:15:54;1171.93;;;999.90;;
57643;SDS011;43474;46.510;6.686;2023-05-07T12:18:21;1133.65;;;999.90;;
57643;SDS011;43474;46.510;6.686;2023-05-07T12:20:48;1100.53;;;996.60;;
57643;SDS011;43474;46.510;6.686;2023-05-07T12:23:14;1065.93;;;970.45;;
57643;SDS011;43474;46.510;6.686;2023-05-07T12:25:41;1068.85;;;974.47;;
57643;SDS011;43474;46.510;6.686;2023-05-07T12:28:14;1044.63;;;954.53;;
57643;SDS011;43474;46.510;6.686;2023-05-07T12:30:40;1052.93;;;963.05;;
57643;SDS011;43474;46.510;6.686;2023-05-07T12:33:08;1023.28;;;938.22;;
57643;SDS011;43474;46.510;6.686;2023-05-07T12:35:39;1031.45;;;945.15;;
57643;SDS011;43474;46.510;6.686;2023-05-07T12:38:09;1062.30;;;972.03;;
57643;SDS011;43474;46.510;6.686;2023-05-07T12:43:05;952.42;;;877.75;;
57643;SDS011;43474;46.510;6.686;2023-05-07T12:45:31;986.33;;;908.75;;
57643;SDS011;43474;46.510;6.686;2023-05-07T12:48:00;908.60;;;839.67;;
57643;SDS011;43474;46.510;6.686;2023-05-07T12:50:30;841.58;;;779.78;;
57643;SDS011;43474;46.510;6.686;2023-05-07T12:52:57;756.33;;;703.00;;
57643;SDS011;43474;46.510;6.686;2023-05-07T12:55:22;725.65;;;676.17;;
57643;SDS011;43474;46.510;6.686;2023-05-07T12:57:48;729.50;;;680.03;;
57643;SDS011;43474;46.510;6.686;2023-05-07T13:00:15;697.33;;;651.28;;
57643;SDS011;43474;46.510;6.686;2023-05-07T13:02:41;688.63;;;641.75;;
57643;SDS011;43474;46.510;6.686;2023-05-07T13:05:09;703.38;;;658.72;;
57643;SDS011;43474;46.510;6.686;2023-05-07T13:07:35;649.67;;;609.15;;
57643;SDS011;43474;46.510;6.686;2023-05-07T13:10:02;687.45;;;643.97;;
57643;SDS011;43474;46.510;6.686;2023-05-07T13:12:28;699.95;;;652.97;;
57643;SDS011;43474;46.510;6.686;2023-05-07T13:14:54;737.63;;;688.90;;
57643;SDS011;43474;46.510;6.686;2023-05-07T13:17:19;632.17;;;593.53;;
57643;SDS011;43474;46.510;6.686;2023-05-07T13:19:45;722.08;;;673.50;;
57643;SDS011;43474;46.510;6.686;2023-05-07T13:22:10;704.38;;;656.75;;
57643;SDS011;43474;46.510;6.686;2023-05-07T13:24:36;664.80;;;622.10;;
57643;SDS011;43474;46.510;6.686;2023-05-07T13:27:02;749.05;;;694.80;;
57643;SDS011;43474;46.510;6.686;2023-05-07T13:29:28;622.38;;;583.22;;
57643;SDS011;43474;46.510;6.686;2023-05-07T13:31:58;653.85;;;610.45;;
57643;SDS011;43474;46.510;6.686;2023-05-07T13:34:25;724.72;;;673.88;;
57643;SDS011;43474;46.510;6.686;2023-05-07T13:36:50;630.58;;;589.00;;
57643;SDS011;43474;46.510;6.686;2023-05-07T13:39:16;596.38;;;558.90;;
57643;SDS011;43474;46.510;6.686;2023-05-07T13:41:41;562.95;;;529.90;;
57643;SDS011;43474;46.510;6.686;2023-05-07T13:44:07;555.17;;;522.38;;
57643;SDS011;43474;46.510;6.686;2023-05-07T13:46:33;568.20;;;533.85;;
57643;SDS011;43474;46.510;6.686;2023-05-07T13:48:58;545.47;;;513.10;;
57643;SDS011;43474;46.510;6.686;2023-05-07T13:51:24;550.70;;;519.78;;
57643;SDS011;43474;46.510;6.686;2023-05-07T13:53:50;608.70;;;570.65;;
57643;SDS011;43474;46.510;6.686;2023-05-07T13:56:17;644.88;;;602.90;;
57643;SDS011;43474;46.510;6.686;2023-05-07T13:58:43;593.33;;;558.22;;
57643;SDS011;43474;46.510;6.686;2023-05-07T14:01:08;655.92;;;612.70;;
57643;SDS011;43474;46.510;6.686;2023-05-07T14:03:34;626.55;;;587.65;;
57643;SDS011;43474;46.510;6.686;2023-05-07T14:06:03;722.28;;;672.25;;